Russellville, AR

4:03 PM CST on December 27, 2014 (GMT -0600)
Amateur Radio Station WB5JJJ | Change Station
CLOSE
Current Station
Personal Weather Station
Location: Russellville, AR
Elevation: 377 ft
Nearby Weather Stations

Elev 377 ft 35.28 °N, 93.15 °W | Updated 4 seconds ago

Overcast
Overcast
43.0 °F
Feels Like 41 °F
N
4.0
Wind Variable Wind from WNW
Gusts 7.0 mph

Today
High -- | Low -- °F
--% Chance of Precip.
Yesterday
High -- | Low -- °F
Precip. -- in
7:19 AM 5:07 PM
Waxing Crescent, 40% visible
Pressure 30.14 in
Visibility 9.0 miles
Clouds Mostly Cloudy 800 ft
Overcast 1900 ft
Windchill 41 °F
Dew Point 43 °F
Humidity 100%
Rainfall 0.07 in
Snow Depth Not available.
UV 0 out of 12
Pollen .70 out of 12
Air Quality Not available.
Flu Activity Not available.
METAR KRUE 272153Z AUTO 29008KT 9SM BKN008 OVC019 07/06 A3015 RMK AO2 CIG 007V011 SLP206 T00720056

More Conditions Fewer Conditions

Pressure 30.14 in
Visibility 9.0 miles
Clouds Mostly Cloudy 800 ft
Overcast 1900 ft
Windchill 41 °F
Dew Point 43 °F
Humidity 100%
Rainfall 0.07 in
Snow Depth Not available.
UV 0 out of 12
Pollen .70 out of 12
Air Quality Not available.
Flu Activity Not available.
METAR KRUE 272153Z AUTO 29008KT 9SM BKN008 OVC019 07/06 A3015 RMK AO2 CIG 007V011 SLP206 T00720056

More Conditions Fewer Conditions

10-Day Weather Forecast

Almanac

Astronomy

Dec. 27, 2014 Rise Set
Actual Time
Civil Twilight
Nautical Twilight
Astronomical Twilight
Moon
Length of Visible Light
Length of Day
Tomorrow will be .
, % of the Moon is Illuminated

Today's Extremes

State Highs State Lows

Community

WunderPhotos

Upload Photos

1,781,088 photos uploaded!

WunderBlogs® & News

Nearby

Air Quality

  Air Quality AQ Index Pollutant
Not available.

Snow Depth

Station Depth Elevation

Earthquake Activity

City Distance Mag. Time & Date
Minimum magnitude displayed is 2.5.

Coastal Water Temperatures

Place Temperature

Nearby Weather Stations